sensor_id;sensor_type;location;lat;lon;timestamp;P1;durP1;ratioP1;P2;durP2;ratioP2
27367;SDS011;14839;48.106;11.618;2023-06-26T04:00:51;6.47;;;4.33;;
27367;SDS011;14839;48.106;11.618;2023-06-26T04:03:17;5.77;;;3.93;;
27367;SDS011;14839;48.106;11.618;2023-06-26T04:05:42;6.43;;;4.37;;
27367;SDS011;14839;48.106;11.618;2023-06-26T04:08:08;8.83;;;4.53;;
27367;SDS011;14839;48.106;11.618;2023-06-26T04:10:34;6.63;;;4.57;;
27367;SDS011;14839;48.106;11.618;2023-06-26T04:13:01;7.90;;;4.67;;
27367;SDS011;14839;48.106;11.618;2023-06-26T04:15:26;6.13;;;4.17;;
27367;SDS011;14839;48.106;11.618;2023-06-26T04:17:52;8.13;;;4.43;;
27367;SDS011;14839;48.106;11.618;2023-06-26T04:20:17;7.23;;;3.87;;
27367;SDS011;14839;48.106;11.618;2023-06-26T04:22:43;6.37;;;4.37;;
27367;SDS011;14839;48.106;11.618;2023-06-26T04:25:09;5.93;;;4.00;;
27367;SDS011;14839;48.106;11.618;2023-06-26T04:27:36;6.17;;;3.87;;
27367;SDS011;14839;48.106;11.618;2023-06-26T04:30:02;8.00;;;4.20;;
27367;SDS011;14839;48.106;11.618;2023-06-26T04:32:28;7.83;;;4.40;;
27367;SDS011;14839;48.106;11.618;2023-06-26T04:34:53;7.33;;;4.27;;
27367;SDS011;14839;48.106;11.618;2023-06-26T04:37:19;6.17;;;4.20;;
27367;SDS011;14839;48.106;11.618;2023-06-26T04:39:45;8.47;;;4.37;;
27367;SDS011;14839;48.106;11.618;2023-06-26T04:42:10;7.63;;;4.27;;
27367;SDS011;14839;48.106;11.618;2023-06-26T04:44:37;6.20;;;4.03;;
27367;SDS011;14839;48.106;11.618;2023-06-26T04:47:03;7.37;;;4.73;;
27367;SDS011;14839;48.106;11.618;2023-06-26T04:49:28;6.70;;;4.10;;
27367;SDS011;14839;48.106;11.618;2023-06-26T04:51:55;6.28;;;4.53;;
27367;SDS011;14839;48.106;11.618;2023-06-26T04:54:21;6.45;;;4.40;;
27367;SDS011;14839;48.106;11.618;2023-06-26T04:56:47;5.70;;;4.53;;
27367;SDS011;14839;48.106;11.618;2023-06-26T04:59:12;5.47;;;4.38;;
27367;SDS011;14839;48.106;11.618;2023-06-26T05:01:39;5.82;;;4.72;;
27367;SDS011;14839;48.106;11.618;2023-06-26T05:04:08;6.47;;;5.10;;
27367;SDS011;14839;48.106;11.618;2023-06-26T05:06:33;5.50;;;4.68;;
27367;SDS011;14839;48.106;11.618;2023-06-26T05:08:59;8.07;;;5.10;;
27367;SDS011;14839;48.106;11.618;2023-06-26T05:11:25;6.47;;;5.15;;
27367;SDS011;14839;48.106;11.618;2023-06-26T05:13:51;7.38;;;5.15;;
27367;SDS011;14839;48.106;11.618;2023-06-26T05:16:16;5.15;;;4.65;;
27367;SDS011;14839;48.106;11.618;2023-06-26T05:18:42;6.30;;;5.30;;
27367;SDS011;14839;48.106;11.618;2023-06-26T05:21:08;6.50;;;5.25;;
27367;SDS011;14839;48.106;11.618;2023-06-26T05:23:34;8.40;;;5.07;;
27367;SDS011;14839;48.106;11.618;2023-06-26T05:26:00;7.32;;;5.32;;
27367;SDS011;14839;48.106;11.618;2023-06-26T05:28:27;7.03;;;4.70;;
27367;SDS011;14839;48.106;11.618;2023-06-26T05:30:55;7.20;;;4.53;;
27367;SDS011;14839;48.106;11.618;2023-06-26T05:33:23;6.10;;;5.05;;
27367;SDS011;14839;48.106;11.618;2023-06-26T05:35:51;5.60;;;4.90;;
27367;SDS011;14839;48.106;11.618;2023-06-26T05:38:18;6.97;;;5.40;;
27367;SDS011;14839;48.106;11.618;2023-06-26T05:40:44;6.53;;;5.13;;
27367;SDS011;14839;48.106;11.618;2023-06-26T05:43:10;6.65;;;5.13;;
27367;SDS011;14839;48.106;11.618;2023-06-26T05:45:36;6.00;;;4.93;;
27367;SDS011;14839;48.106;11.618;2023-06-26T05:48:02;5.28;;;4.78;;
27367;SDS011;14839;48.106;11.618;2023-06-26T05:50:28;6.38;;;4.72;;
27367;SDS011;14839;48.106;11.618;2023-06-26T05:52:54;5.93;;;5.03;;
27367;SDS011;14839;48.106;11.618;2023-06-26T05:55:20;5.93;;;4.78;;
27367;SDS011;14839;48.106;11.618;2023-06-26T05:57:46;5.72;;;4.90;;
27367;SDS011;14839;48.106;11.618;2023-06-26T06:00:13;8.27;;;5.43;;
27367;SDS011;14839;48.106;11.618;2023-06-26T06:02:39;7.05;;;5.15;;
27367;SDS011;14839;48.106;11.618;2023-06-26T06:05:06;6.75;;;4.97;;
27367;SDS011;14839;48.106;11.618;2023-06-26T06:07:32;7.63;;;5.47;;
27367;SDS011;14839;48.106;11.618;2023-06-26T06:09:59;11.00;;;5.22;;
27367;SDS011;14839;48.106;11.618;2023-06-26T06:12:24;5.70;;;5.18;;
27367;SDS011;14839;48.106;11.618;2023-06-26T06:14:51;7.03;;;5.18;;
27367;SDS011;14839;48.106;11.618;2023-06-26T06:17:17;8.23;;;5.68;;
27367;SDS011;14839;48.106;11.618;2023-06-26T06:19:43;5.95;;;5.35;;
27367;SDS011;14839;48.106;11.618;2023-06-26T06:22:08;6.90;;;5.53;;
27367;SDS011;14839;48.106;11.618;2023-06-26T06:24:34;6.40;;;5.60;;
27367;SDS011;14839;48.106;11.618;2023-06-26T06:27:00;6.47;;;5.03;;
27367;SDS011;14839;48.106;11.618;2023-06-26T06:29:26;6.15;;;5.55;;
27367;SDS011;14839;48.106;11.618;2023-06-26T06:31:51;5.93;;;5.28;;
27367;SDS011;14839;48.106;11.618;2023-06-26T06:34:35;6.20;;;5.35;;
27367;SDS011;14839;48.106;11.618;2023-06-26T06:37:04;7.20;;;5.40;;
27367;SDS011;14839;48.106;11.618;2023-06-26T06:39:29;7.93;;;5.60;;
27367;SDS011;14839;48.106;11.618;2023-06-26T06:41:55;6.75;;;5.53;;
27367;SDS011;14839;48.106;11.618;2023-06-26T06:44:21;6.72;;;5.35;;
27367;SDS011;14839;48.106;11.618;2023-06-26T06:46:47;5.78;;;4.93;;
27367;SDS011;14839;48.106;11.618;2023-06-26T06:49:12;5.38;;;4.88;;
27367;SDS011;14839;48.106;11.618;2023-06-26T06:51:38;5.70;;;5.05;;
27367;SDS011;14839;48.106;11.618;2023-06-26T06:54:03;6.13;;;5.25;;
27367;SDS011;14839;48.106;11.618;2023-06-26T06:56:29;6.32;;;5.30;;
27367;SDS011;14839;48.106;11.618;2023-06-26T06:58:55;6.70;;;5.88;;
27367;SDS011;14839;48.106;11.618;2023-06-26T07:01:20;5.80;;;5.15;;
27367;SDS011;14839;48.106;11.618;2023-06-26T07:03:46;5.72;;;4.88;;
27367;SDS011;14839;48.106;11.618;2023-06-26T07:06:11;6.40;;;5.10;;
27367;SDS011;14839;48.106;11.618;2023-06-26T07:08:37;5.07;;;4.57;;
27367;SDS011;14839;48.106;11.618;2023-06-26T07:11:03;5.72;;;5.05;;
27367;SDS011;14839;48.106;11.618;2023-06-26T07:13:29;6.60;;;4.30;;
27367;SDS011;14839;48.106;11.618;2023-06-26T07:15:54;5.95;;;5.05;;
27367;SDS011;14839;48.106;11.618;2023-06-26T07:18:20;5.20;;;4.70;;
27367;SDS011;14839;48.106;11.618;2023-06-26T07:20:45;8.40;;;4.72;;
27367;SDS011;14839;48.106;11.618;2023-06-26T07:23:11;5.32;;;4.82;;
27367;SDS011;14839;48.106;11.618;2023-06-26T07:25:36;5.30;;;4.80;;
27367;SDS011;14839;48.106;11.618;2023-06-26T07:28:02;4.70;;;4.30;;
27367;SDS011;14839;48.106;11.618;2023-06-26T07:30:28;5.10;;;4.70;;
27367;SDS011;14839;48.106;11.618;2023-06-26T07:32:53;5.68;;;4.60;;
27367;SDS011;14839;48.106;11.618;2023-06-26T07:35:19;5.07;;;4.57;;
27367;SDS011;14839;48.106;11.618;2023-06-26T07:37:44;5.35;;;4.55;;
27367;SDS011;14839;48.106;11.618;2023-06-26T07:40:10;5.15;;;4.60;;
27367;SDS011;14839;48.106;11.618;2023-06-26T07:42:36;5.20;;;4.70;;
27367;SDS011;14839;48.106;11.618;2023-06-26T07:45:02;5.28;;;4.78;;
27367;SDS011;14839;48.106;11.618;2023-06-26T07:47:34;8.77;;;4.32;;
27367;SDS011;14839;48.106;11.618;2023-06-26T07:50:01;6.78;;;5.18;;
27367;SDS011;14839;48.106;11.618;2023-06-26T07:52:26;5.50;;;4.95;;
27367;SDS011;14839;48.106;11.618;2023-06-26T07:54:52;5.38;;;4.88;;
27367;SDS011;14839;48.106;11.618;2023-06-26T07:57:17;7.10;;;5.28;;
27367;SDS011;14839;48.106;11.618;2023-06-26T07:59:43;5.65;;;4.25;;
27367;SDS011;14839;48.106;11.618;2023-06-26T08:02:08;7.40;;;4.88;;
27367;SDS011;14839;48.106;11.618;2023-06-26T08:04:34;4.70;;;4.20;;
27367;SDS011;14839;48.106;11.618;2023-06-26T08:07:00;5.00;;;4.50;;
27367;SDS011;14839;48.106;11.618;2023-06-26T08:09:28;4.90;;;4.35;;
27367;SDS011;14839;48.106;11.618;2023-06-26T08:11:54;5.00;;;4.50;;
27367;SDS011;14839;48.106;11.618;2023-06-26T08:14:20;4.93;;;4.43;;
27367;SDS011;14839;48.106;11.618;2023-06-26T08:16:46;5.05;;;4.30;;
27367;SDS011;14839;48.106;11.618;2023-06-26T08:19:13;5.22;;;4.40;;
27367;SDS011;14839;48.106;11.618;2023-06-26T08:21:43;6.57;;;4.13;;
27367;SDS011;14839;48.106;11.618;2023-06-26T08:24:10;4.68;;;3.88;;
27367;SDS011;14839;48.106;11.618;2023-06-26T08:26:36;5.13;;;4.30;;
27367;SDS011;14839;48.106;11.618;2023-06-26T08:29:02;5.03;;;4.13;;
27367;SDS011;14839;48.106;11.618;2023-06-26T08:31:36;5.50;;;4.45;;
27367;SDS011;14839;48.106;11.618;2023-06-26T08:34:02;5.53;;;4.78;;
27367;SDS011;14839;48.106;11.618;2023-06-26T08:36:29;4.47;;;3.95;;
27367;SDS011;14839;48.106;11.618;2023-06-26T08:38:55;6.07;;;4.32;;
27367;SDS011;14839;48.106;11.618;2023-06-26T08:41:20;5.22;;;4.68;;
27367;SDS011;14839;48.106;11.618;2023-06-26T08:43:46;4.47;;;3.67;;
27367;SDS011;14839;48.106;11.618;2023-06-26T08:46:14;8.82;;;4.55;;
27367;SDS011;14839;48.106;11.618;2023-06-26T08:48:39;4.47;;;4.07;;
27367;SDS011;14839;48.106;11.618;2023-06-26T08:51:11;6.68;;;4.45;;
27367;SDS011;14839;48.106;11.618;2023-06-26T08:53:59;4.90;;;4.40;;
27367;SDS011;14839;48.106;11.618;2023-06-26T08:56:47;4.93;;;4.40;;
27367;SDS011;14839;48.106;11.618;2023-06-26T08:59:13;4.82;;;4.15;;
27367;SDS011;14839;48.106;11.618;2023-06-26T09:01:39;6.88;;;4.50;;
27367;SDS011;14839;48.106;11.618;2023-06-26T09:04:05;4.75;;;4.00;;
27367;SDS011;14839;48.106;11.618;2023-06-26T09:06:32;4.63;;;3.95;;
27367;SDS011;14839;48.106;11.618;2023-06-26T09:08:58;5.47;;;4.47;;
27367;SDS011;14839;48.106;11.618;2023-06-26T09:11:23;5.90;;;4.75;;
27367;SDS011;14839;48.106;11.618;2023-06-26T09:13:49;5.22;;;4.05;;
27367;SDS011;14839;48.106;11.618;2023-06-26T09:16:15;6.05;;;4.20;;
27367;SDS011;14839;48.106;11.618;2023-06-26T09:18:41;5.13;;;4.15;;
27367;SDS011;14839;48.106;11.618;2023-06-26T09:21:09;4.32;;;3.83;;
27367;SDS011;14839;48.106;11.618;2023-06-26T09:23:36;7.18;;;4.05;;
27367;SDS011;14839;48.106;11.618;2023-06-26T09:26:05;4.65;;;3.70;;
27367;SDS011;14839;48.106;11.618;2023-06-26T09:28:34;6.97;;;4.15;;
27367;SDS011;14839;48.106;11.618;2023-06-26T09:31:04;4.57;;;4.07;;
27367;SDS011;14839;48.106;11.618;2023-06-26T09:33:37;4.28;;;3.88;;
27367;SDS011;14839;48.106;11.618;2023-06-26T09:36:18;7.38;;;4.18;;
27367;SDS011;14839;48.106;11.618;2023-06-26T09:38:45;4.38;;;3.83;;
27367;SDS011;14839;48.106;11.618;2023-06-26T09:41:11;7.35;;;4.28;;
27367;SDS011;14839;48.106;11.618;2023-06-26T09:43:45;5.03;;;4.53;;
27367;SDS011;14839;48.106;11.618;2023-06-26T09:46:24;4.40;;;3.67;;
27367;SDS011;14839;48.106;11.618;2023-06-26T09:49:24;5.13;;;4.10;;
27367;SDS011;14839;48.106;11.618;2023-06-26T09:51:43;4.45;;;3.35;;
27367;SDS011;14839;48.106;11.618;2023-06-26T09:54:08;4.28;;;3.40;;
27367;SDS011;14839;48.106;11.618;2023-06-26T09:56:34;6.75;;;3.58;;
27367;SDS011;14839;48.106;11.618;2023-06-26T09:59:01;4.60;;;3.33;;
27367;SDS011;14839;48.106;11.618;2023-06-26T10:01:28;4.18;;;3.25;;
27367;SDS011;14839;48.106;11.618;2023-06-26T10:03:55;3.90;;;3.28;;
27367;SDS011;14839;48.106;11.618;2023-06-26T10:06:28;5.65;;;3.30;;
27367;SDS011;14839;48.106;11.618;2023-06-26T10:09:01;6.32;;;3.30;;
27367;SDS011;14839;48.106;11.618;2023-06-26T10:11:37;4.57;;;3.40;;
27367;SDS011;14839;48.106;11.618;2023-06-26T10:14:06;4.85;;;3.25;;
27367;SDS011;14839;48.106;11.618;2023-06-26T10:16:34;5.43;;;3.50;;
27367;SDS011;14839;48.106;11.618;2023-06-26T10:19:03;3.85;;;3.35;;
27367;SDS011;14839;48.106;11.618;2023-06-26T10:21:33;4.07;;;3.40;;
27367;SDS011;14839;48.106;11.618;2023-06-26T10:24:00;4.68;;;3.38;;
27367;SDS011;14839;48.106;11.618;2023-06-26T10:26:28;4.63;;;2.67;;
27367;SDS011;14839;48.106;11.618;2023-06-26T10:28:55;3.28;;;2.95;;
27367;SDS011;14839;48.106;11.618;2023-06-26T10:31:23;7.03;;;3.15;;
27367;SDS011;14839;48.106;11.618;2023-06-26T10:33:51;4.85;;;2.67;;
27367;SDS011;14839;48.106;11.618;2023-06-26T10:36:18;3.50;;;2.70;;
27367;SDS011;14839;48.106;11.618;2023-06-26T10:38:52;4.28;;;3.30;;
27367;SDS011;14839;48.106;11.618;2023-06-26T10:41:20;3.33;;;2.95;;
27367;SDS011;14839;48.106;11.618;2023-06-26T10:43:51;4.32;;;2.75;;
27367;SDS011;14839;48.106;11.618;2023-06-26T10:46:23;4.00;;;3.05;;
27367;SDS011;14839;48.106;11.618;2023-06-26T10:48:55;3.33;;;3.03;;
27367;SDS011;14839;48.106;11.618;2023-06-26T10:51:25;3.92;;;2.80;;
27367;SDS011;14839;48.106;11.618;2023-06-26T10:53:55;3.35;;;2.80;;
27367;SDS011;14839;48.106;11.618;2023-06-26T10:56:40;3.15;;;2.67;;
27367;SDS011;14839;48.106;11.618;2023-06-26T10:59:14;3.60;;;3.15;;
27367;SDS011;14839;48.106;11.618;2023-06-26T11:01:43;4.13;;;3.20;;
27367;SDS011;14839;48.106;11.618;2023-06-26T11:04:11;3.17;;;2.78;;
27367;SDS011;14839;48.106;11.618;2023-06-26T11:06:39;4.57;;;3.28;;
27367;SDS011;14839;48.106;11.618;2023-06-26T11:14:25;3.42;;;3.13;;
27367;SDS011;14839;48.106;11.618;2023-06-26T11:16:51;3.42;;;3.13;;
27367;SDS011;14839;48.106;11.618;2023-06-26T11:19:20;4.22;;;3.50;;
27367;SDS011;14839;48.106;11.618;2023-06-26T11:21:45;5.05;;;3.25;;
27367;SDS011;14839;48.106;11.618;2023-06-26T11:24:13;3.53;;;3.22;;
27367;SDS011;14839;48.106;11.618;2023-06-26T11:26:41;4.93;;;3.28;;
27367;SDS011;14839;48.106;11.618;2023-06-26T11:29:08;4.32;;;3.05;;
27367;SDS011;14839;48.106;11.618;2023-06-26T11:31:35;4.43;;;3.40;;
27367;SDS011;14839;48.106;11.618;2023-06-26T11:34:03;3.70;;;3.40;;
27367;SDS011;14839;48.106;11.618;2023-06-26T11:36:30;3.67;;;3.20;;
27367;SDS011;14839;48.106;11.618;2023-06-26T11:38:59;3.95;;;3.13;;
27367;SDS011;14839;48.106;11.618;2023-06-26T11:41:28;6.32;;;3.40;;
27367;SDS011;14839;48.106;11.618;2023-06-26T11:43:55;4.70;;;3.65;;
27367;SDS011;14839;48.106;11.618;2023-06-26T11:46:25;4.40;;;3.30;;
27367;SDS011;14839;48.106;11.618;2023-06-26T11:48:51;4.50;;;3.47;;
27367;SDS011;14839;48.106;11.618;2023-06-26T11:51:17;5.20;;;3.30;;
27367;SDS011;14839;48.106;11.618;2023-06-26T11:53:43;7.45;;;3.40;;
27367;SDS011;14839;48.106;11.618;2023-06-26T11:56:10;4.45;;;3.45;;
27367;SDS011;14839;48.106;11.618;2023-06-26T12:04:06;4.45;;;3.67;;
27367;SDS011;14839;48.106;11.618;2023-06-26T12:06:34;3.83;;;3.30;;
27367;SDS011;14839;48.106;11.618;2023-06-26T12:09:00;4.93;;;3.72;;
27367;SDS011;14839;48.106;11.618;2023-06-26T12:11:30;4.32;;;3.72;;
27367;SDS011;14839;48.106;11.618;2023-06-26T12:13:58;4.95;;;4.32;;
27367;SDS011;14839;48.106;11.618;2023-06-26T12:16:24;5.72;;;3.55;;
27367;SDS011;14839;48.106;11.618;2023-06-26T12:18:50;4.43;;;3.88;;
27367;SDS011;14839;48.106;11.618;2023-06-26T12:24:13;7.25;;;3.40;;
27367;SDS011;14839;48.106;11.618;2023-06-26T12:26:41;5.28;;;3.90;;
27367;SDS011;14839;48.106;11.618;2023-06-26T12:29:11;3.65;;;3.30;;
27367;SDS011;14839;48.106;11.618;2023-06-26T12:31:42;4.55;;;3.83;;
27367;SDS011;14839;48.106;11.618;2023-06-26T12:34:10;4.85;;;3.95;;
27367;SDS011;14839;48.106;11.618;2023-06-26T12:36:44;6.65;;;4.03;;
27367;SDS011;14839;48.106;11.618;2023-06-26T12:39:12;4.63;;;3.72;;
27367;SDS011;14839;48.106;11.618;2023-06-26T12:41:48;4.53;;;3.90;;
27367;SDS011;14839;48.106;11.618;2023-06-26T12:44:28;6.03;;;4.05;;
27367;SDS011;14839;48.106;11.618;2023-06-26T12:46:58;5.40;;;3.70;;
27367;SDS011;14839;48.106;11.618;2023-06-26T12:49:31;4.30;;;3.70;;
27367;SDS011;14839;48.106;11.618;2023-06-26T12:52:04;3.80;;;3.40;;
27367;SDS011;14839;48.106;11.618;2023-06-26T12:54:32;5.57;;;4.28;;
27367;SDS011;14839;48.106;11.618;2023-06-26T12:57:03;5.72;;;3.55;;
27367;SDS011;14839;48.106;11.618;2023-06-26T12:59:29;4.90;;;4.25;;
27367;SDS011;14839;48.106;11.618;2023-06-26T13:01:56;5.10;;;3.95;;
27367;SDS011;14839;48.106;11.618;2023-06-26T13:04:22;4.07;;;3.70;;
27367;SDS011;14839;48.106;11.618;2023-06-26T13:06:47;5.20;;;4.07;;
27367;SDS011;14839;48.106;11.618;2023-06-26T13:09:13;4.97;;;3.78;;
27367;SDS011;14839;48.106;11.618;2023-06-26T13:11:39;5.55;;;3.85;;
27367;SDS011;14839;48.106;11.618;2023-06-26T13:14:04;5.28;;;4.50;;
27367;SDS011;14839;48.106;11.618;2023-06-26T13:16:30;6.50;;;3.78;;
27367;SDS011;14839;48.106;11.618;2023-06-26T13:18:57;4.97;;;4.10;;
27367;SDS011;14839;48.106;11.618;2023-06-26T13:21:23;5.65;;;4.13;;
27367;SDS011;14839;48.106;11.618;2023-06-26T13:23:49;7.10;;;4.32;;
27367;SDS011;14839;48.106;11.618;2023-06-26T13:26:15;4.43;;;3.88;;
27367;SDS011;14839;48.106;11.618;2023-06-26T13:28:40;6.43;;;3.95;;
27367;SDS011;14839;48.106;11.618;2023-06-26T13:31:06;4.70;;;3.85;;
27367;SDS011;14839;48.106;11.618;2023-06-26T13:33:32;5.35;;;3.80;;
27367;SDS011;14839;48.106;11.618;2023-06-26T13:35:57;4.50;;;3.92;;
27367;SDS011;14839;48.106;11.618;2023-06-26T13:38:23;6.55;;;4.03;;
27367;SDS011;14839;48.106;11.618;2023-06-26T13:40:52;5.13;;;3.75;;
27367;SDS011;14839;48.106;11.618;2023-06-26T13:43:20;4.60;;;4.00;;
27367;SDS011;14839;48.106;11.618;2023-06-26T13:45:46;4.28;;;3.88;;
27367;SDS011;14839;48.106;11.618;2023-06-26T13:48:12;6.80;;;3.97;;
27367;SDS011;14839;48.106;11.618;2023-06-26T13:50:38;4.68;;;4.10;;
27367;SDS011;14839;48.106;11.618;2023-06-26T13:53:03;4.82;;;4.13;;
27367;SDS011;14839;48.106;11.618;2023-06-26T13:55:29;4.47;;;3.75;;
27367;SDS011;14839;48.106;11.618;2023-06-26T13:57:55;4.72;;;4.15;;
27367;SDS011;14839;48.106;11.618;2023-06-26T14:00:21;4.75;;;4.22;;
27367;SDS011;14839;48.106;11.618;2023-06-26T14:02:47;6.05;;;4.45;;
27367;SDS011;14839;48.106;11.618;2023-06-26T14:05:13;4.70;;;4.20;;
27367;SDS011;14839;48.106;11.618;2023-06-26T14:07:39;5.47;;;4.28;;
27367;SDS011;14839;48.106;11.618;2023-06-26T14:10:05;5.28;;;4.35;;
27367;SDS011;14839;48.106;11.618;2023-06-26T14:12:32;7.68;;;4.25;;
27367;SDS011;14839;48.106;11.618;2023-06-26T14:14:58;5.80;;;4.88;;
27367;SDS011;14839;48.106;11.618;2023-06-26T14:17:24;5.25;;;4.10;;
27367;SDS011;14839;48.106;11.618;2023-06-26T14:19:51;10.02;;;4.30;;
27367;SDS011;14839;48.106;11.618;2023-06-26T14:22:19;5.25;;;4.35;;
27367;SDS011;14839;48.106;11.618;2023-06-26T14:24:45;5.68;;;4.05;;
27367;SDS011;14839;48.106;11.618;2023-06-26T14:27:11;6.13;;;4.10;;
27367;SDS011;14839;48.106;11.618;2023-06-26T14:29:37;5.70;;;4.93;;
27367;SDS011;14839;48.106;11.618;2023-06-26T14:32:03;5.93;;;4.28;;
27367;SDS011;14839;48.106;11.618;2023-06-26T14:34:29;5.45;;;4.32;;
27367;SDS011;14839;48.106;11.618;2023-06-26T14:36:54;4.13;;;3.72;;
27367;SDS011;14839;48.106;11.618;2023-06-26T14:39:20;4.97;;;4.47;;
27367;SDS011;14839;48.106;11.618;2023-06-26T14:41:46;5.30;;;4.30;;
27367;SDS011;14839;48.106;11.618;2023-06-26T14:44:13;4.75;;;4.25;;
27367;SDS011;14839;48.106;11.618;2023-06-26T14:46:39;5.22;;;3.95;;
27367;SDS011;14839;48.106;11.618;2023-06-26T14:49:04;4.90;;;4.00;;
27367;SDS011;14839;48.106;11.618;2023-06-26T14:51:30;4.82;;;4.10;;
27367;SDS011;14839;48.106;11.618;2023-06-26T14:53:55;4.90;;;4.13;;
27367;SDS011;14839;48.106;11.618;2023-06-26T14:56:21;5.90;;;4.53;;
27367;SDS011;14839;48.106;11.618;2023-06-26T14:58:47;4.45;;;4.03;;
27367;SDS011;14839;48.106;11.618;2023-06-26T15:01:13;5.90;;;4.13;;
27367;SDS011;14839;48.106;11.618;2023-06-26T15:03:41;6.50;;;4.25;;
27367;SDS011;14839;48.106;11.618;2023-06-26T15:06:07;5.55;;;3.95;;
27367;SDS011;14839;48.106;11.618;2023-06-26T15:08:33;9.52;;;4.38;;
27367;SDS011;14839;48.106;11.618;2023-06-26T15:11:00;6.43;;;4.35;;
27367;SDS011;14839;48.106;11.618;2023-06-26T15:13:27;5.18;;;3.92;;
27367;SDS011;14839;48.106;11.618;2023-06-26T15:15:53;5.70;;;4.55;;
27367;SDS011;14839;48.106;11.618;2023-06-26T15:18:18;6.13;;;4.25;;
27367;SDS011;14839;48.106;11.618;2023-06-26T15:20:44;4.68;;;4.15;;
27367;SDS011;14839;48.106;11.618;2023-06-26T15:23:10;5.55;;;3.83;;
27367;SDS011;14839;48.106;11.618;2023-06-26T15:25:35;6.20;;;4.57;;
27367;SDS011;14839;48.106;11.618;2023-06-26T15:28:02;5.53;;;4.60;;
27367;SDS011;14839;48.106;11.618;2023-06-26T15:30:28;4.82;;;3.80;;
27367;SDS011;14839;48.106;11.618;2023-06-26T15:32:54;5.93;;;4.03;;
27367;SDS011;14839;48.106;11.618;2023-06-26T15:35:19;5.03;;;3.88;;
27367;SDS011;14839;48.106;11.618;2023-06-26T15:37:45;5.55;;;4.35;;
27367;SDS011;14839;48.106;11.618;2023-06-26T15:40:11;5.80;;;4.57;;
27367;SDS011;14839;48.106;11.618;2023-06-26T15:42:47;6.45;;;3.83;;
27367;SDS011;14839;48.106;11.618;2023-06-26T15:45:14;5.20;;;4.22;;
27367;SDS011;14839;48.106;11.618;2023-06-26T15:47:42;5.72;;;4.25;;
27367;SDS011;14839;48.106;11.618;2023-06-26T15:50:08;6.68;;;3.97;;
27367;SDS011;14839;48.106;11.618;2023-06-26T15:52:34;4.78;;;4.00;;
27367;SDS011;14839;48.106;11.618;2023-06-26T15:55:00;6.22;;;3.88;;
27367;SDS011;14839;48.106;11.618;2023-06-26T15:57:26;5.68;;;3.83;;
27367;SDS011;14839;48.106;11.618;2023-06-26T15:59:52;5.05;;;3.60;;
27367;SDS011;14839;48.106;11.618;2023-06-26T16:02:18;4.28;;;3.75;;
27367;SDS011;14839;48.106;11.618;2023-06-26T16:04:43;5.65;;;4.43;;
27367;SDS011;14839;48.106;11.618;2023-06-26T16:07:09;5.05;;;4.13;;
27367;SDS011;14839;48.106;11.618;2023-06-26T16:09:34;4.47;;;3.70;;
27367;SDS011;14839;48.106;11.618;2023-06-26T16:12:00;5.50;;;3.90;;
27367;SDS011;14839;48.106;11.618;2023-06-26T16:14:26;7.40;;;4.68;;
27367;SDS011;14839;48.106;11.618;2023-06-26T16:16:51;7.70;;;4.28;;
27367;SDS011;14839;48.106;11.618;2023-06-26T16:19:17;4.85;;;4.20;;
27367;SDS011;14839;48.106;11.618;2023-06-26T16:21:43;5.47;;;4.22;;
27367;SDS011;14839;48.106;11.618;2023-06-26T16:24:08;8.38;;;4.45;;
27367;SDS011;14839;48.106;11.618;2023-06-26T16:26:34;5.60;;;4.45;;
27367;SDS011;14839;48.106;11.618;2023-06-26T16:29:00;5.40;;;4.68;;
27367;SDS011;14839;48.106;11.618;2023-06-26T16:31:25;4.65;;;4.15;;
27367;SDS011;14839;48.106;11.618;2023-06-26T16:33:51;5.22;;;4.60;;
27367;SDS011;14839;48.106;11.618;2023-06-26T16:36:17;5.65;;;4.43;;
27367;SDS011;14839;48.106;11.618;2023-06-26T16:38:43;7.07;;;4.75;;
27367;SDS011;14839;48.106;11.618;2023-06-26T16:41:11;5.55;;;4.30;;
27367;SDS011;14839;48.106;11.618;2023-06-26T16:43:37;6.78;;;3.83;;
27367;SDS011;14839;48.106;11.618;2023-06-26T16:46:02;6.07;;;4.80;;
27367;SDS011;14839;48.106;11.618;2023-06-26T16:48:31;9.35;;;4.45;;
27367;SDS011;14839;48.106;11.618;2023-06-26T16:50:57;6.30;;;4.45;;
27367;SDS011;14839;48.106;11.618;2023-06-26T16:53:23;4.60;;;3.92;;
27367;SDS011;14839;48.106;11.618;2023-06-26T16:55:48;5.50;;;4.20;;
27367;SDS011;14839;48.106;11.618;2023-06-26T16:58:14;4.45;;;4.05;;
27367;SDS011;14839;48.106;11.618;2023-06-26T17:00:40;4.68;;;3.97;;
27367;SDS011;14839;48.106;11.618;2023-06-26T17:03:06;5.13;;;4.00;;
27367;SDS011;14839;48.106;11.618;2023-06-26T17:05:34;6.82;;;4.57;;
27367;SDS011;14839;48.106;11.618;2023-06-26T17:07:59;5.28;;;4.13;;
27367;SDS011;14839;48.106;11.618;2023-06-26T17:10:25;5.55;;;3.90;;
27367;SDS011;14839;48.106;11.618;2023-06-26T17:12:51;9.63;;;4.40;;
27367;SDS011;14839;48.106;11.618;2023-06-26T17:15:17;5.70;;;4.38;;
27367;SDS011;14839;48.106;11.618;2023-06-26T17:17:43;4.30;;;3.90;;
27367;SDS011;14839;48.106;11.618;2023-06-26T17:20:08;6.10;;;4.15;;
27367;SDS011;14839;48.106;11.618;2023-06-26T17:22:35;7.25;;;4.45;;
27367;SDS011;14839;48.106;11.618;2023-06-26T17:25:01;6.95;;;4.40;;
27367;SDS011;14839;48.106;11.618;2023-06-26T17:27:30;5.57;;;3.78;;
27367;SDS011;14839;48.106;11.618;2023-06-26T17:29:56;5.15;;;4.50;;
27367;SDS011;14839;48.106;11.618;2023-06-26T17:32:23;4.50;;;4.07;;
27367;SDS011;14839;48.106;11.618;2023-06-26T17:34:49;5.60;;;4.40;;
27367;SDS011;14839;48.106;11.618;2023-06-26T17:37:14;8.05;;;3.92;;
27367;SDS011;14839;48.106;11.618;2023-06-26T17:39:40;6.68;;;4.38;;
27367;SDS011;14839;48.106;11.618;2023-06-26T17:42:06;5.65;;;4.65;;
27367;SDS011;14839;48.106;11.618;2023-06-26T17:44:32;5.03;;;4.05;;
27367;SDS011;14839;48.106;11.618;2023-06-26T17:46:58;5.20;;;4.30;;
27367;SDS011;14839;48.106;11.618;2023-06-26T17:49:24;4.10;;;3.60;;
27367;SDS011;14839;48.106;11.618;2023-06-26T17:51:49;6.30;;;4.20;;
27367;SDS011;14839;48.106;11.618;2023-06-26T17:54:15;7.32;;;4.70;;
27367;SDS011;14839;48.106;11.618;2023-06-26T17:56:42;5.22;;;4.00;;
27367;SDS011;14839;48.106;11.618;2023-06-26T17:59:10;6.85;;;4.78;;
27367;SDS011;14839;48.106;11.618;2023-06-26T18:01:36;7.25;;;4.20;;
27367;SDS011;14839;48.106;11.618;2023-06-26T18:04:02;5.75;;;4.38;;
27367;SDS011;14839;48.106;11.618;2023-06-26T18:06:28;7.15;;;4.70;;
27367;SDS011;14839;48.106;11.618;2023-06-26T18:08:54;4.95;;;4.45;;
27367;SDS011;14839;48.106;11.618;2023-06-26T18:11:19;6.07;;;4.10;;
27367;SDS011;14839;48.106;11.618;2023-06-26T18:13:45;5.57;;;4.68;;
27367;SDS011;14839;48.106;11.618;2023-06-26T18:16:11;5.00;;;4.40;;
27367;SDS011;14839;48.106;11.618;2023-06-26T18:18:40;5.45;;;4.00;;
27367;SDS011;14839;48.106;11.618;2023-06-26T18:21:06;6.18;;;4.95;;
27367;SDS011;14839;48.106;11.618;2023-06-26T18:23:32;5.85;;;4.35;;
27367;SDS011;14839;48.106;11.618;2023-06-26T18:25:58;6.18;;;4.70;;
27367;SDS011;14839;48.106;11.618;2023-06-26T18:28:24;6.00;;;4.50;;
27367;SDS011;14839;48.106;11.618;2023-06-26T18:30:50;6.20;;;4.50;;
27367;SDS011;14839;48.106;11.618;2023-06-26T18:33:16;6.03;;;4.93;;
27367;SDS011;14839;48.106;11.618;2023-06-26T18:35:41;6.60;;;4.97;;
27367;SDS011;14839;48.106;11.618;2023-06-26T18:38:07;5.75;;;4.63;;
27367;SDS011;14839;48.106;11.618;2023-06-26T18:40:40;8.30;;;4.65;;
27367;SDS011;14839;48.106;11.618;2023-06-26T18:43:05;8.30;;;4.72;;
27367;SDS011;14839;48.106;11.618;2023-06-26T18:45:31;7.22;;;4.82;;